sensor_id;sensor_type;location;lat;lon;timestamp;P1;durP1;ratioP1;P2;durP2;ratioP2
46439;SDS011;32138;50.966;6.968;2023-07-20T00:00:14;6.88;;;4.10;;
46439;SDS011;32138;50.966;6.968;2023-07-20T00:01:45;8.52;;;3.50;;
46439;SDS011;32138;50.966;6.968;2023-07-20T00:03:16;6.18;;;4.43;;
46439;SDS011;32138;50.966;6.968;2023-07-20T00:04:48;7.50;;;4.13;;
46439;SDS011;32138;50.966;6.968;2023-07-20T00:06:19;6.53;;;3.47;;
46439;SDS011;32138;50.966;6.968;2023-07-20T00:07:57;6.65;;;3.75;;
46439;SDS011;32138;50.966;6.968;2023-07-20T00:09:28;5.57;;;3.15;;
46439;SDS011;32138;50.966;6.968;2023-07-20T00:10:59;8.02;;;3.13;;
46439;SDS011;32138;50.966;6.968;2023-07-20T00:12:29;9.45;;;3.25;;
46439;SDS011;32138;50.966;6.968;2023-07-20T00:14:00;8.23;;;3.30;;
46439;SDS011;32138;50.966;6.968;2023-07-20T00:15:31;7.40;;;3.45;;
46439;SDS011;32138;50.966;6.968;2023-07-20T00:17:02;9.50;;;3.88;;
46439;SDS011;32138;50.966;6.968;2023-07-20T00:18:32;5.72;;;3.47;;
46439;SDS011;32138;50.966;6.968;2023-07-20T00:20:03;8.57;;;3.47;;
46439;SDS011;32138;50.966;6.968;2023-07-20T00:21:35;8.38;;;3.60;;
46439;SDS011;32138;50.966;6.968;2023-07-20T00:23:06;9.40;;;3.67;;
46439;SDS011;32138;50.966;6.968;2023-07-20T00:24:37;10.82;;;3.13;;
46439;SDS011;32138;50.966;6.968;2023-07-20T00:26:08;10.93;;;3.20;;
46439;SDS011;32138;50.966;6.968;2023-07-20T00:27:38;11.18;;;3.42;;
46439;SDS011;32138;50.966;6.968;2023-07-20T00:29:09;6.43;;;3.30;;
46439;SDS011;32138;50.966;6.968;2023-07-20T00:30:40;7.13;;;4.18;;
46439;SDS011;32138;50.966;6.968;2023-07-20T00:32:11;5.80;;;2.97;;
46439;SDS011;32138;50.966;6.968;2023-07-20T00:33:42;5.68;;;3.03;;
46439;SDS011;32138;50.966;6.968;2023-07-20T00:35:13;13.60;;;3.55;;
46439;SDS011;32138;50.966;6.968;2023-07-20T00:36:44;12.32;;;3.45;;
46439;SDS011;32138;50.966;6.968;2023-07-20T00:38:14;8.35;;;3.53;;
46439;SDS011;32138;50.966;6.968;2023-07-20T00:39:45;7.57;;;3.92;;
46439;SDS011;32138;50.966;6.968;2023-07-20T00:41:16;7.53;;;2.92;;
46439;SDS011;32138;50.966;6.968;2023-07-20T00:42:47;7.18;;;3.10;;
46439;SDS011;32138;50.966;6.968;2023-07-20T00:44:18;9.43;;;3.40;;
46439;SDS011;32138;50.966;6.968;2023-07-20T00:45:48;5.55;;;2.97;;
46439;SDS011;32138;50.966;6.968;2023-07-20T00:47:19;5.57;;;2.83;;
46439;SDS011;32138;50.966;6.968;2023-07-20T00:48:50;6.85;;;3.45;;
46439;SDS011;32138;50.966;6.968;2023-07-20T00:50:23;5.95;;;3.28;;
46439;SDS011;32138;50.966;6.968;2023-07-20T00:51:55;5.38;;;3.15;;
46439;SDS011;32138;50.966;6.968;2023-07-20T00:53:26;10.15;;;3.00;;
46439;SDS011;32138;50.966;6.968;2023-07-20T00:54:58;6.82;;;3.05;;
46439;SDS011;32138;50.966;6.968;2023-07-20T00:56:28;4.28;;;2.58;;
46439;SDS011;32138;50.966;6.968;2023-07-20T00:57:59;7.47;;;3.42;;
46439;SDS011;32138;50.966;6.968;2023-07-20T00:59:31;6.53;;;3.42;;
46439;SDS011;32138;50.966;6.968;2023-07-20T01:01:02;7.38;;;2.88;;
46439;SDS011;32138;50.966;6.968;2023-07-20T01:02:32;7.95;;;3.25;;
46439;SDS011;32138;50.966;6.968;2023-07-20T01:04:03;7.95;;;2.92;;
46439;SDS011;32138;50.966;6.968;2023-07-20T01:05:40;5.43;;;2.85;;
46439;SDS011;32138;50.966;6.968;2023-07-20T01:09:28;4.13;;;2.60;;
46439;SDS011;32138;50.966;6.968;2023-07-20T01:11:16;6.75;;;2.85;;
46439;SDS011;32138;50.966;6.968;2023-07-20T01:13:15;6.80;;;3.40;;
46439;SDS011;32138;50.966;6.968;2023-07-20T01:14:48;5.93;;;3.13;;
46439;SDS011;32138;50.966;6.968;2023-07-20T01:16:20;8.00;;;3.15;;
46439;SDS011;32138;50.966;6.968;2023-07-20T01:17:50;6.25;;;3.22;;
46439;SDS011;32138;50.966;6.968;2023-07-20T01:19:21;6.20;;;3.15;;
46439;SDS011;32138;50.966;6.968;2023-07-20T01:20:53;6.40;;;2.80;;
46439;SDS011;32138;50.966;6.968;2023-07-20T01:32:43;7.47;;;3.30;;
46439;SDS011;32138;50.966;6.968;2023-07-20T01:34:17;7.20;;;3.42;;
46439;SDS011;32138;50.966;6.968;2023-07-20T01:35:52;6.30;;;3.42;;
46439;SDS011;32138;50.966;6.968;2023-07-20T01:37:26;8.63;;;3.88;;
46439;SDS011;32138;50.966;6.968;2023-07-20T01:38:59;7.70;;;3.50;;
46439;SDS011;32138;50.966;6.968;2023-07-20T01:40:32;7.60;;;3.75;;
46439;SDS011;32138;50.966;6.968;2023-07-20T01:42:03;7.25;;;3.47;;
46439;SDS011;32138;50.966;6.968;2023-07-20T01:43:34;5.70;;;2.90;;
46439;SDS011;32138;50.966;6.968;2023-07-20T01:45:05;5.97;;;3.25;;
46439;SDS011;32138;50.966;6.968;2023-07-20T01:46:37;6.25;;;3.17;;
46439;SDS011;32138;50.966;6.968;2023-07-20T01:48:08;6.95;;;3.13;;
46439;SDS011;32138;50.966;6.968;2023-07-20T01:49:39;5.55;;;2.58;;
46439;SDS011;32138;50.966;6.968;2023-07-20T01:51:09;5.60;;;2.95;;
46439;SDS011;32138;50.966;6.968;2023-07-20T01:52:42;6.15;;;2.92;;
46439;SDS011;32138;50.966;6.968;2023-07-20T01:54:12;4.72;;;2.78;;
46439;SDS011;32138;50.966;6.968;2023-07-20T01:55:43;4.95;;;3.08;;
46439;SDS011;32138;50.966;6.968;2023-07-20T01:57:14;5.28;;;3.17;;
46439;SDS011;32138;50.966;6.968;2023-07-20T01:58:45;8.20;;;3.42;;
46439;SDS011;32138;50.966;6.968;2023-07-20T02:00:16;6.72;;;2.80;;
46439;SDS011;32138;50.966;6.968;2023-07-20T02:01:49;6.03;;;2.63;;
46439;SDS011;32138;50.966;6.968;2023-07-20T02:03:19;9.57;;;3.65;;
46439;SDS011;32138;50.966;6.968;2023-07-20T02:04:51;8.77;;;3.40;;
46439;SDS011;32138;50.966;6.968;2023-07-20T02:06:22;7.47;;;3.20;;
46439;SDS011;32138;50.966;6.968;2023-07-20T02:07:53;7.78;;;2.70;;
46439;SDS011;32138;50.966;6.968;2023-07-20T02:09:24;4.47;;;2.40;;
46439;SDS011;32138;50.966;6.968;2023-07-20T02:10:54;5.70;;;2.90;;
46439;SDS011;32138;50.966;6.968;2023-07-20T02:12:25;4.88;;;2.47;;
46439;SDS011;32138;50.966;6.968;2023-07-20T02:13:56;4.30;;;2.88;;
46439;SDS011;32138;50.966;6.968;2023-07-20T02:15:27;4.47;;;2.63;;
46439;SDS011;32138;50.966;6.968;2023-07-20T02:16:58;4.57;;;2.25;;
46439;SDS011;32138;50.966;6.968;2023-07-20T02:18:30;6.25;;;2.97;;
46439;SDS011;32138;50.966;6.968;2023-07-20T02:20:00;7.53;;;3.25;;
46439;SDS011;32138;50.966;6.968;2023-07-20T02:21:31;4.70;;;3.10;;
46439;SDS011;32138;50.966;6.968;2023-07-20T02:23:02;4.53;;;3.20;;
46439;SDS011;32138;50.966;6.968;2023-07-20T02:24:33;6.18;;;3.05;;
46439;SDS011;32138;50.966;6.968;2023-07-20T02:26:04;6.53;;;3.53;;
46439;SDS011;32138;50.966;6.968;2023-07-20T02:27:35;4.38;;;3.00;;
46439;SDS011;32138;50.966;6.968;2023-07-20T02:29:06;6.15;;;3.00;;
46439;SDS011;32138;50.966;6.968;2023-07-20T02:30:38;6.32;;;3.88;;
46439;SDS011;32138;50.966;6.968;2023-07-20T02:32:09;6.78;;;2.85;;
46439;SDS011;32138;50.966;6.968;2023-07-20T02:33:40;7.70;;;3.40;;
46439;SDS011;32138;50.966;6.968;2023-07-20T02:35:11;6.95;;;3.35;;
46439;SDS011;32138;50.966;6.968;2023-07-20T02:36:42;5.38;;;3.22;;
46439;SDS011;32138;50.966;6.968;2023-07-20T02:38:13;7.43;;;4.10;;
46439;SDS011;32138;50.966;6.968;2023-07-20T02:39:44;5.63;;;4.00;;
46439;SDS011;32138;50.966;6.968;2023-07-20T02:41:14;7.18;;;3.67;;
46439;SDS011;32138;50.966;6.968;2023-07-20T02:42:45;7.38;;;4.50;;
46439;SDS011;32138;50.966;6.968;2023-07-20T02:44:16;6.70;;;3.92;;
46439;SDS011;32138;50.966;6.968;2023-07-20T02:45:47;5.38;;;3.65;;
46439;SDS011;32138;50.966;6.968;2023-07-20T02:47:20;6.78;;;3.92;;
46439;SDS011;32138;50.966;6.968;2023-07-20T02:48:50;8.38;;;4.10;;
46439;SDS011;32138;50.966;6.968;2023-07-20T02:50:22;4.93;;;3.35;;
46439;SDS011;32138;50.966;6.968;2023-07-20T02:51:52;5.95;;;4.05;;
46439;SDS011;32138;50.966;6.968;2023-07-20T02:53:24;8.02;;;4.57;;
46439;SDS011;32138;50.966;6.968;2023-07-20T02:54:55;8.95;;;4.50;;
46439;SDS011;32138;50.966;6.968;2023-07-20T02:56:25;7.13;;;4.00;;
46439;SDS011;32138;50.966;6.968;2023-07-20T02:57:56;7.88;;;3.92;;
46439;SDS011;32138;50.966;6.968;2023-07-20T02:59:27;6.95;;;3.35;;
46439;SDS011;32138;50.966;6.968;2023-07-20T03:00:59;6.10;;;3.58;;
46439;SDS011;32138;50.966;6.968;2023-07-20T03:02:30;6.82;;;4.03;;
46439;SDS011;32138;50.966;6.968;2023-07-20T03:04:00;6.35;;;3.75;;
46439;SDS011;32138;50.966;6.968;2023-07-20T03:05:32;4.65;;;3.40;;
46439;SDS011;32138;50.966;6.968;2023-07-20T03:07:05;8.10;;;4.00;;
46439;SDS011;32138;50.966;6.968;2023-07-20T03:08:37;7.32;;;3.95;;
46439;SDS011;32138;50.966;6.968;2023-07-20T03:10:08;12.30;;;3.80;;
46439;SDS011;32138;50.966;6.968;2023-07-20T03:11:39;5.43;;;3.80;;
46439;SDS011;32138;50.966;6.968;2023-07-20T03:13:10;6.90;;;3.38;;
46439;SDS011;32138;50.966;6.968;2023-07-20T03:14:40;7.03;;;3.70;;
46439;SDS011;32138;50.966;6.968;2023-07-20T03:16:12;5.38;;;3.80;;
46439;SDS011;32138;50.966;6.968;2023-07-20T03:17:47;6.55;;;4.00;;
46439;SDS011;32138;50.966;6.968;2023-07-20T03:19:18;8.50;;;4.53;;
46439;SDS011;32138;50.966;6.968;2023-07-20T03:20:49;6.40;;;4.15;;
46439;SDS011;32138;50.966;6.968;2023-07-20T03:22:19;11.77;;;4.13;;
46439;SDS011;32138;50.966;6.968;2023-07-20T03:23:52;6.53;;;4.38;;
46439;SDS011;32138;50.966;6.968;2023-07-20T03:25:22;11.23;;;3.55;;
46439;SDS011;32138;50.966;6.968;2023-07-20T03:26:53;7.70;;;3.50;;
46439;SDS011;32138;50.966;6.968;2023-07-20T03:28:24;6.95;;;3.55;;
46439;SDS011;32138;50.966;6.968;2023-07-20T03:29:55;7.47;;;4.07;;
46439;SDS011;32138;50.966;6.968;2023-07-20T03:31:26;8.20;;;3.22;;
46439;SDS011;32138;50.966;6.968;2023-07-20T03:32:57;6.88;;;3.65;;
46439;SDS011;32138;50.966;6.968;2023-07-20T03:34:27;7.47;;;3.85;;
46439;SDS011;32138;50.966;6.968;2023-07-20T03:35:58;6.78;;;3.55;;
46439;SDS011;32138;50.966;6.968;2023-07-20T03:37:29;7.00;;;3.20;;
46439;SDS011;32138;50.966;6.968;2023-07-20T03:39:00;6.55;;;3.78;;
46439;SDS011;32138;50.966;6.968;2023-07-20T03:40:31;6.82;;;3.80;;
46439;SDS011;32138;50.966;6.968;2023-07-20T03:42:01;9.38;;;3.72;;
46439;SDS011;32138;50.966;6.968;2023-07-20T03:43:32;6.25;;;3.65;;
46439;SDS011;32138;50.966;6.968;2023-07-20T03:45:03;7.57;;;3.40;;
46439;SDS011;32138;50.966;6.968;2023-07-20T03:46:36;5.25;;;3.10;;
46439;SDS011;32138;50.966;6.968;2023-07-20T03:48:07;6.75;;;3.58;;
46439;SDS011;32138;50.966;6.968;2023-07-20T03:49:38;9.77;;;3.05;;
46439;SDS011;32138;50.966;6.968;2023-07-20T03:51:08;6.45;;;3.17;;
46439;SDS011;32138;50.966;6.968;2023-07-20T03:52:39;7.45;;;3.30;;
46439;SDS011;32138;50.966;6.968;2023-07-20T03:54:10;6.35;;;3.13;;
46439;SDS011;32138;50.966;6.968;2023-07-20T03:55:49;8.18;;;3.10;;
46439;SDS011;32138;50.966;6.968;2023-07-20T03:57:21;7.13;;;3.25;;
46439;SDS011;32138;50.966;6.968;2023-07-20T03:58:52;5.45;;;2.95;;
46439;SDS011;32138;50.966;6.968;2023-07-20T04:00:23;6.07;;;3.88;;
46439;SDS011;32138;50.966;6.968;2023-07-20T04:01:53;7.40;;;2.97;;
46439;SDS011;32138;50.966;6.968;2023-07-20T04:03:24;7.97;;;2.92;;
46439;SDS011;32138;50.966;6.968;2023-07-20T04:04:56;5.93;;;2.97;;
46439;SDS011;32138;50.966;6.968;2023-07-20T04:06:27;5.40;;;2.70;;
46439;SDS011;32138;50.966;6.968;2023-07-20T04:07:58;6.95;;;2.67;;
46439;SDS011;32138;50.966;6.968;2023-07-20T04:09:28;7.28;;;3.55;;
46439;SDS011;32138;50.966;6.968;2023-07-20T04:11:02;8.75;;;3.60;;
46439;SDS011;32138;50.966;6.968;2023-07-20T04:12:33;8.77;;;3.55;;
46439;SDS011;32138;50.966;6.968;2023-07-20T04:14:04;8.95;;;3.72;;
46439;SDS011;32138;50.966;6.968;2023-07-20T04:15:35;7.57;;;4.18;;
46439;SDS011;32138;50.966;6.968;2023-07-20T04:17:06;5.55;;;2.60;;
46439;SDS011;32138;50.966;6.968;2023-07-20T04:18:37;5.53;;;2.70;;
46439;SDS011;32138;50.966;6.968;2023-07-20T04:20:07;8.25;;;3.15;;
46439;SDS011;32138;50.966;6.968;2023-07-20T04:21:40;5.55;;;3.10;;
46439;SDS011;32138;50.966;6.968;2023-07-20T04:23:11;10.48;;;3.33;;
46439;SDS011;32138;50.966;6.968;2023-07-20T04:24:42;5.22;;;3.40;;
46439;SDS011;32138;50.966;6.968;2023-07-20T04:26:13;6.60;;;3.45;;
46439;SDS011;32138;50.966;6.968;2023-07-20T04:27:44;8.27;;;3.65;;
46439;SDS011;32138;50.966;6.968;2023-07-20T04:29:15;6.47;;;2.85;;
46439;SDS011;32138;50.966;6.968;2023-07-20T04:30:48;5.88;;;2.97;;
46439;SDS011;32138;50.966;6.968;2023-07-20T04:32:19;8.55;;;3.53;;
46439;SDS011;32138;50.966;6.968;2023-07-20T04:33:50;9.27;;;3.60;;
46439;SDS011;32138;50.966;6.968;2023-07-20T04:37:22;5.90;;;3.45;;
46439;SDS011;32138;50.966;6.968;2023-07-20T04:38:52;6.53;;;2.78;;
46439;SDS011;32138;50.966;6.968;2023-07-20T04:40:23;7.65;;;3.25;;
46439;SDS011;32138;50.966;6.968;2023-07-20T04:41:54;5.20;;;2.95;;
46439;SDS011;32138;50.966;6.968;2023-07-20T04:43:25;5.43;;;3.35;;
46439;SDS011;32138;50.966;6.968;2023-07-20T04:44:56;7.68;;;3.50;;
46439;SDS011;32138;50.966;6.968;2023-07-20T04:46:27;5.50;;;3.47;;
46439;SDS011;32138;50.966;6.968;2023-07-20T04:47:58;10.00;;;3.58;;
46439;SDS011;32138;50.966;6.968;2023-07-20T04:49:28;6.75;;;3.22;;
46439;SDS011;32138;50.966;6.968;2023-07-20T04:50:59;11.15;;;3.50;;
46439;SDS011;32138;50.966;6.968;2023-07-20T04:52:30;10.45;;;4.22;;
46439;SDS011;32138;50.966;6.968;2023-07-20T04:54:01;6.25;;;3.30;;
46439;SDS011;32138;50.966;6.968;2023-07-20T04:55:32;8.05;;;3.85;;
46439;SDS011;32138;50.966;6.968;2023-07-20T04:57:05;8.00;;;3.90;;
46439;SDS011;32138;50.966;6.968;2023-07-20T04:58:41;8.40;;;4.20;;
46439;SDS011;32138;50.966;6.968;2023-07-20T05:00:12;7.03;;;3.88;;
46439;SDS011;32138;50.966;6.968;2023-07-20T05:01:45;10.05;;;4.35;;
46439;SDS011;32138;50.966;6.968;2023-07-20T05:03:16;10.35;;;3.95;;
46439;SDS011;32138;50.966;6.968;2023-07-20T05:04:47;7.20;;;4.20;;
46439;SDS011;32138;50.966;6.968;2023-07-20T05:06:18;6.22;;;3.70;;
46439;SDS011;32138;50.966;6.968;2023-07-20T05:07:49;8.88;;;4.75;;
46439;SDS011;32138;50.966;6.968;2023-07-20T05:09:19;9.15;;;3.58;;
46439;SDS011;32138;50.966;6.968;2023-07-20T05:10:50;7.30;;;3.40;;
46439;SDS011;32138;50.966;6.968;2023-07-20T05:12:21;7.97;;;4.00;;
46439;SDS011;32138;50.966;6.968;2023-07-20T05:13:52;8.43;;;4.28;;
46439;SDS011;32138;50.966;6.968;2023-07-20T05:15:22;9.43;;;3.63;;
46439;SDS011;32138;50.966;6.968;2023-07-20T05:16:53;8.32;;;4.03;;
46439;SDS011;32138;50.966;6.968;2023-07-20T05:18:24;8.07;;;3.95;;
46439;SDS011;32138;50.966;6.968;2023-07-20T05:19:55;10.95;;;5.18;;
46439;SDS011;32138;50.966;6.968;2023-07-20T05:21:25;6.63;;;3.72;;
46439;SDS011;32138;50.966;6.968;2023-07-20T05:22:56;8.98;;;4.65;;
46439;SDS011;32138;50.966;6.968;2023-07-20T05:24:27;11.52;;;4.07;;
46439;SDS011;32138;50.966;6.968;2023-07-20T05:25:58;7.93;;;4.95;;
46439;SDS011;32138;50.966;6.968;2023-07-20T05:27:29;11.88;;;5.90;;
46439;SDS011;32138;50.966;6.968;2023-07-20T05:29:00;12.30;;;4.65;;
46439;SDS011;32138;50.966;6.968;2023-07-20T05:30:31;11.93;;;5.28;;
46439;SDS011;32138;50.966;6.968;2023-07-20T05:32:01;9.88;;;5.40;;
46439;SDS011;32138;50.966;6.968;2023-07-20T05:33:33;12.15;;;5.70;;
46439;SDS011;32138;50.966;6.968;2023-07-20T05:35:04;12.80;;;5.28;;
46439;SDS011;32138;50.966;6.968;2023-07-20T05:36:35;10.25;;;5.22;;
46439;SDS011;32138;50.966;6.968;2023-07-20T05:38:06;10.57;;;5.85;;
46439;SDS011;32138;50.966;6.968;2023-07-20T05:39:37;11.88;;;5.45;;
46439;SDS011;32138;50.966;6.968;2023-07-20T05:41:08;8.27;;;5.65;;
46439;SDS011;32138;50.966;6.968;2023-07-20T05:42:40;8.90;;;5.97;;
46439;SDS011;32138;50.966;6.968;2023-07-20T05:44:11;10.05;;;5.63;;
46439;SDS011;32138;50.966;6.968;2023-07-20T05:45:42;7.55;;;5.05;;
46439;SDS011;32138;50.966;6.968;2023-07-20T05:47:13;14.25;;;6.30;;
46439;SDS011;32138;50.966;6.968;2023-07-20T05:48:44;13.57;;;5.60;;
46439;SDS011;32138;50.966;6.968;2023-07-20T05:50:15;15.52;;;5.95;;
46439;SDS011;32138;50.966;6.968;2023-07-20T05:51:45;8.63;;;6.47;;
46439;SDS011;32138;50.966;6.968;2023-07-20T05:53:17;9.25;;;5.45;;
46439;SDS011;32138;50.966;6.968;2023-07-20T05:54:47;12.55;;;6.85;;
46439;SDS011;32138;50.966;6.968;2023-07-20T05:56:18;11.00;;;5.82;;
46439;SDS011;32138;50.966;6.968;2023-07-20T05:57:49;16.63;;;6.07;;
46439;SDS011;32138;50.966;6.968;2023-07-20T05:59:20;14.90;;;5.88;;
46439;SDS011;32138;50.966;6.968;2023-07-20T06:00:51;12.45;;;5.65;;
46439;SDS011;32138;50.966;6.968;2023-07-20T06:02:21;11.82;;;6.35;;
46439;SDS011;32138;50.966;6.968;2023-07-20T06:03:52;11.25;;;6.50;;
46439;SDS011;32138;50.966;6.968;2023-07-20T06:05:23;14.82;;;6.93;;
46439;SDS011;32138;50.966;6.968;2023-07-20T06:06:54;14.48;;;8.82;;
46439;SDS011;32138;50.966;6.968;2023-07-20T06:08:25;11.15;;;7.10;;
46439;SDS011;32138;50.966;6.968;2023-07-20T06:09:55;11.35;;;7.93;;
46439;SDS011;32138;50.966;6.968;2023-07-20T06:11:28;14.85;;;7.68;;
46439;SDS011;32138;50.966;6.968;2023-07-20T06:12:58;13.07;;;8.02;;
46439;SDS011;32138;50.966;6.968;2023-07-20T06:14:29;10.50;;;5.95;;
46439;SDS011;32138;50.966;6.968;2023-07-20T06:16:00;9.90;;;6.45;;
46439;SDS011;32138;50.966;6.968;2023-07-20T06:17:31;11.90;;;6.95;;
46439;SDS011;32138;50.966;6.968;2023-07-20T06:19:03;10.32;;;6.70;;
46439;SDS011;32138;50.966;6.968;2023-07-20T06:20:33;13.98;;;8.57;;
46439;SDS011;32138;50.966;6.968;2023-07-20T06:22:04;17.63;;;7.53;;
46439;SDS011;32138;50.966;6.968;2023-07-20T06:23:35;11.52;;;7.63;;
46439;SDS011;32138;50.966;6.968;2023-07-20T06:25:06;11.55;;;7.43;;
46439;SDS011;32138;50.966;6.968;2023-07-20T06:26:37;10.60;;;8.07;;
46439;SDS011;32138;50.966;6.968;2023-07-20T06:28:10;11.55;;;7.72;;
46439;SDS011;32138;50.966;6.968;2023-07-20T06:29:42;8.73;;;6.60;;
46439;SDS011;32138;50.966;6.968;2023-07-20T06:31:12;14.85;;;8.30;;
46439;SDS011;32138;50.966;6.968;2023-07-20T06:32:43;11.35;;;8.35;;
46439;SDS011;32138;50.966;6.968;2023-07-20T06:34:14;11.32;;;7.50;;
46439;SDS011;32138;50.966;6.968;2023-07-20T06:35:44;13.20;;;6.60;;
46439;SDS011;32138;50.966;6.968;2023-07-20T06:37:15;7.25;;;6.55;;
46439;SDS011;32138;50.966;6.968;2023-07-20T06:38:46;15.05;;;8.13;;
46439;SDS011;32138;50.966;6.968;2023-07-20T06:40:17;8.85;;;6.47;;
46439;SDS011;32138;50.966;6.968;2023-07-20T06:41:49;11.43;;;7.05;;
46439;SDS011;32138;50.966;6.968;2023-07-20T06:43:20;11.40;;;7.30;;
46439;SDS011;32138;50.966;6.968;2023-07-20T06:44:51;8.55;;;6.55;;
46439;SDS011;32138;50.966;6.968;2023-07-20T06:46:21;12.30;;;7.40;;
46439;SDS011;32138;50.966;6.968;2023-07-20T06:47:52;11.57;;;7.47;;
46439;SDS011;32138;50.966;6.968;2023-07-20T06:49:26;10.65;;;6.80;;
46439;SDS011;32138;50.966;6.968;2023-07-20T06:50:58;10.75;;;6.07;;
46439;SDS011;32138;50.966;6.968;2023-07-20T06:52:28;12.68;;;7.70;;
46439;SDS011;32138;50.966;6.968;2023-07-20T06:53:59;10.65;;;7.38;;
46439;SDS011;32138;50.966;6.968;2023-07-20T06:55:30;8.88;;;6.72;;
46439;SDS011;32138;50.966;6.968;2023-07-20T06:57:01;10.95;;;6.80;;
46439;SDS011;32138;50.966;6.968;2023-07-20T06:58:32;10.27;;;6.18;;
46439;SDS011;32138;50.966;6.968;2023-07-20T07:00:03;10.52;;;8.13;;
46439;SDS011;32138;50.966;6.968;2023-07-20T07:01:36;7.90;;;6.68;;
46439;SDS011;32138;50.966;6.968;2023-07-20T07:03:07;10.07;;;7.15;;
46439;SDS011;32138;50.966;6.968;2023-07-20T07:04:38;10.95;;;7.05;;
46439;SDS011;32138;50.966;6.968;2023-07-20T07:06:08;8.48;;;6.57;;
46439;SDS011;32138;50.966;6.968;2023-07-20T07:07:40;10.55;;;6.88;;
46439;SDS011;32138;50.966;6.968;2023-07-20T07:09:11;8.98;;;7.50;;
46439;SDS011;32138;50.966;6.968;2023-07-20T07:10:42;8.52;;;6.85;;
46439;SDS011;32138;50.966;6.968;2023-07-20T07:12:13;8.45;;;6.43;;
46439;SDS011;32138;50.966;6.968;2023-07-20T07:13:44;11.82;;;7.40;;
46439;SDS011;32138;50.966;6.968;2023-07-20T07:15:18;10.90;;;6.97;;
46439;SDS011;32138;50.966;6.968;2023-07-20T07:16:49;9.75;;;7.20;;
46439;SDS011;32138;50.966;6.968;2023-07-20T07:18:20;10.60;;;6.85;;
46439;SDS011;32138;50.966;6.968;2023-07-20T07:19:51;8.38;;;5.65;;
46439;SDS011;32138;50.966;6.968;2023-07-20T07:21:26;8.57;;;6.22;;
46439;SDS011;32138;50.966;6.968;2023-07-20T07:22:57;7.97;;;5.68;;
46439;SDS011;32138;50.966;6.968;2023-07-20T07:24:27;9.00;;;6.55;;
46439;SDS011;32138;50.966;6.968;2023-07-20T07:26:03;8.05;;;5.88;;
46439;SDS011;32138;50.966;6.968;2023-07-20T07:27:34;7.97;;;6.70;;
46439;SDS011;32138;50.966;6.968;2023-07-20T07:29:04;10.38;;;7.13;;
46439;SDS011;32138;50.966;6.968;2023-07-20T07:30:35;12.70;;;7.15;;
46439;SDS011;32138;50.966;6.968;2023-07-20T07:32:06;11.65;;;6.53;;
46439;SDS011;32138;50.966;6.968;2023-07-20T07:33:37;10.68;;;6.53;;
46439;SDS011;32138;50.966;6.968;2023-07-20T07:35:08;9.73;;;6.47;;
46439;SDS011;32138;50.966;6.968;2023-07-20T07:36:39;11.02;;;6.60;;
46439;SDS011;32138;50.966;6.968;2023-07-20T07:38:10;8.23;;;5.10;;
46439;SDS011;32138;50.966;6.968;2023-07-20T07:39:40;10.07;;;5.13;;
46439;SDS011;32138;50.966;6.968;2023-07-20T07:41:11;7.75;;;4.68;;
46439;SDS011;32138;50.966;6.968;2023-07-20T07:42:42;6.35;;;4.75;;
46439;SDS011;32138;50.966;6.968;2023-07-20T07:44:13;7.47;;;4.30;;
46439;SDS011;32138;50.966;6.968;2023-07-20T07:45:43;7.00;;;4.65;;
46439;SDS011;32138;50.966;6.968;2023-07-20T07:47:14;9.63;;;5.00;;
46439;SDS011;32138;50.966;6.968;2023-07-20T07:48:45;6.55;;;4.47;;
46439;SDS011;32138;50.966;6.968;2023-07-20T07:50:15;6.95;;;4.20;;
46439;SDS011;32138;50.966;6.968;2023-07-20T07:51:46;7.18;;;5.70;;
46439;SDS011;32138;50.966;6.968;2023-07-20T07:53:17;8.73;;;5.50;;
46439;SDS011;32138;50.966;6.968;2023-07-20T07:54:48;9.73;;;7.07;;
46439;SDS011;32138;50.966;6.968;2023-07-20T07:56:18;7.57;;;6.07;;
46439;SDS011;32138;50.966;6.968;2023-07-20T07:57:52;9.05;;;5.57;;
46439;SDS011;32138;50.966;6.968;2023-07-20T07:59:23;6.10;;;5.40;;
46439;SDS011;32138;50.966;6.968;2023-07-20T08:00:54;6.95;;;5.28;;
46439;SDS011;32138;50.966;6.968;2023-07-20T08:02:24;7.72;;;5.47;;
46439;SDS011;32138;50.966;6.968;2023-07-20T08:03:56;9.68;;;6.07;;
46439;SDS011;32138;50.966;6.968;2023-07-20T08:05:27;9.10;;;5.82;;
46439;SDS011;32138;50.966;6.968;2023-07-20T08:06:58;7.68;;;5.28;;
46439;SDS011;32138;50.966;6.968;2023-07-20T08:08:30;8.70;;;6.40;;
46439;SDS011;32138;50.966;6.968;2023-07-20T08:10:02;11.48;;;5.82;;
46439;SDS011;32138;50.966;6.968;2023-07-20T08:11:34;11.20;;;5.82;;
46439;SDS011;32138;50.966;6.968;2023-07-20T08:13:04;5.55;;;5.05;;
46439;SDS011;32138;50.966;6.968;2023-07-20T08:14:35;7.75;;;5.20;;
46439;SDS011;32138;50.966;6.968;2023-07-20T08:16:06;7.15;;;4.68;;
46439;SDS011;32138;50.966;6.968;2023-07-20T08:17:36;6.82;;;5.15;;
46439;SDS011;32138;50.966;6.968;2023-07-20T08:19:07;8.40;;;4.72;;
46439;SDS011;32138;50.966;6.968;2023-07-20T08:20:38;10.27;;;4.13;;
46439;SDS011;32138;50.966;6.968;2023-07-20T08:22:08;6.28;;;4.03;;
46439;SDS011;32138;50.966;6.968;2023-07-20T08:23:40;4.63;;;3.10;;
46439;SDS011;32138;50.966;6.968;2023-07-20T08:25:10;5.50;;;3.17;;
46439;SDS011;32138;50.966;6.968;2023-07-20T08:26:41;5.20;;;3.00;;
46439;SDS011;32138;50.966;6.968;2023-07-20T08:28:13;6.10;;;3.67;;
46439;SDS011;32138;50.966;6.968;2023-07-20T08:29:45;9.40;;;3.88;;
46439;SDS011;32138;50.966;6.968;2023-07-20T08:31:16;4.78;;;3.05;;
46439;SDS011;32138;50.966;6.968;2023-07-20T08:32:48;7.32;;;3.60;;
46439;SDS011;32138;50.966;6.968;2023-07-20T08:34:18;6.65;;;3.55;;
46439;SDS011;32138;50.966;6.968;2023-07-20T08:35:49;6.45;;;4.35;;
46439;SDS011;32138;50.966;6.968;2023-07-20T08:37:20;6.05;;;4.15;;
46439;SDS011;32138;50.966;6.968;2023-07-20T08:38:51;5.65;;;3.88;;
46439;SDS011;32138;50.966;6.968;2023-07-20T08:40:21;9.48;;;4.00;;
46439;SDS011;32138;50.966;6.968;2023-07-20T08:41:52;6.13;;;3.75;;
46439;SDS011;32138;50.966;6.968;2023-07-20T08:43:26;9.10;;;4.15;;
46439;SDS011;32138;50.966;6.968;2023-07-20T08:44:57;5.78;;;4.25;;
46439;SDS011;32138;50.966;6.968;2023-07-20T08:46:29;7.03;;;3.70;;
46439;SDS011;32138;50.966;6.968;2023-07-20T08:48:01;5.55;;;2.78;;
46439;SDS011;32138;50.966;6.968;2023-07-20T08:49:33;4.78;;;2.90;;
46439;SDS011;32138;50.966;6.968;2023-07-20T08:51:05;6.60;;;4.10;;
46439;SDS011;32138;50.966;6.968;2023-07-20T08:52:35;5.22;;;2.80;;
46439;SDS011;32138;50.966;6.968;2023-07-20T08:54:06;4.22;;;3.40;;
46439;SDS011;32138;50.966;6.968;2023-07-20T08:55:41;4.10;;;3.20;;
46439;SDS011;32138;50.966;6.968;2023-07-20T08:57:15;5.32;;;3.17;;
46439;SDS011;32138;50.966;6.968;2023-07-20T08:58:46;8.68;;;3.22;;
46439;SDS011;32138;50.966;6.968;2023-07-20T09:00:17;5.95;;;2.95;;
46439;SDS011;32138;50.966;6.968;2023-07-20T09:01:51;4.45;;;2.95;;
46439;SDS011;32138;50.966;6.968;2023-07-20T09:03:24;5.05;;;2.85;;
46439;SDS011;32138;50.966;6.968;2023-07-20T09:04:55;4.75;;;2.63;;
46439;SDS011;32138;50.966;6.968;2023-07-20T09:06:26;6.43;;;2.78;;
46439;SDS011;32138;50.966;6.968;2023-07-20T09:07:57;6.57;;;2.60;;
46439;SDS011;32138;50.966;6.968;2023-07-20T09:09:27;5.13;;;2.80;;
46439;SDS011;32138;50.966;6.968;2023-07-20T09:10:58;4.35;;;2.67;;
46439;SDS011;32138;50.966;6.968;2023-07-20T09:12:29;6.45;;;2.85;;
46439;SDS011;32138;50.966;6.968;2023-07-20T09:14:03;4.63;;;2.50;;
46439;SDS011;32138;50.966;6.968;2023-07-20T09:15:35;4.10;;;2.47;;
46439;SDS011;32138;50.966;6.968;2023-07-20T09:17:06;4.05;;;2.42;;
46439;SDS011;32138;50.966;6.968;2023-07-20T09:18:44;4.68;;;2.28;;
46439;SDS011;32138;50.966;6.968;2023-07-20T09:20:15;6.25;;;1.73;;
46439;SDS011;32138;50.966;6.968;2023-07-20T09:21:50;5.43;;;1.95;;
46439;SDS011;32138;50.966;6.968;2023-07-20T09:23:29;5.85;;;1.92;;